Time;durP1;ratioP1;P1;durP2;ratioP2;P2;SDS_P1;SDS_P2;PMS_P1;PMS_P2;Temp;Humidity;BMP_temperature;BMP_pressure;BME280_temperature;BME280_humidity;BME280_pressure;Samples;Min_cycle;Max_cycle;Signal;HPM_P1;HPM_P2
2021/10/14 00:00:11;;;;;;;5.43;4.40;;;5.70;99.90;;;;;;5027603;28;20108;-75
2021/10/14 00:02:37;;;;;;;6.03;4.15;;;5.80;99.90;;;;;;4997766;28;20083;-76
2021/10/14 00:05:04;;;;;;;5.15;4.65;;;5.80;99.90;;;;;;5032761;28;20037;-77
2021/10/14 00:07:30;;;;;;;5.35;4.22;;;5.80;99.90;;;;;;5034171;28;20037;-75
2021/10/14 00:09:55;;;;;;;4.72;4.25;;;5.70;99.90;;;;;;5033564;28;20030;-75
2021/10/14 00:12:21;;;;;;;4.90;3.97;;;5.70;99.90;;;;;;5034202;28;20057;-74
2021/10/14 00:14:47;;;;;;;4.55;3.83;;;5.70;99.90;;;;;;5033879;28;20021;-75
2021/10/14 00:17:12;;;;;;;4.75;3.40;;;5.70;99.90;;;;;;5033812;28;20045;-75
2021/10/14 00:19:40;;;;;;;6.03;4.55;;;5.70;99.90;;;;;;5015094;28;20442;-76
2021/10/14 00:22:06;;;;;;;5.22;4.25;;;5.70;99.90;;;;;;5022960;28;20048;-75
2021/10/14 00:24:31;;;;;;;6.63;4.68;;;5.60;99.90;;;;;;5033704;28;20083;-75
2021/10/14 00:26:57;;;;;;;5.43;4.00;;;5.70;99.90;;;;;;5000095;28;20021;-75
2021/10/14 00:29:23;;;;;;;4.28;3.80;;;5.60;99.90;;;;;;5035228;28;20025;-73
2021/10/14 00:31:49;;;;;;;4.57;3.67;;;5.60;99.90;;;;;;5035923;28;20005;-73
2021/10/14 00:34:15;;;;;;;4.70;3.78;;;5.60;99.90;;;;;;5040463;28;20044;-74
2021/10/14 00:36:40;;;;;;;10.02;4.07;;;5.60;99.90;;;;;;5014692;28;20520;-74
2021/10/14 00:39:06;;;;;;;6.15;3.35;;;5.50;99.90;;;;;;5033903;28;20033;-75
2021/10/14 00:41:31;;;;;;;7.47;4.72;;;5.60;99.90;;;;;;5033788;28;20093;-74
2021/10/14 00:43:58;;;;;;;5.18;4.25;;;5.50;99.90;;;;;;5032957;28;20390;-76
2021/10/14 00:46:24;;;;;;;7.00;3.90;;;5.50;99.90;;;;;;5033314;28;20048;-74
2021/10/14 00:48:51;;;;;;;5.40;3.70;;;5.50;99.90;;;;;;5030872;28;20109;-75
2021/10/14 00:51:16;;;;;;;5.85;3.80;;;5.50;99.90;;;;;;5015698;28;20029;-75
2021/10/14 00:53:42;;;;;;;8.98;4.78;;;5.50;99.90;;;;;;5015777;28;20052;-76
2021/10/14 00:56:08;;;;;;;6.00;3.67;;;5.50;99.90;;;;;;5032547;28;20052;-77
2021/10/14 00:58:35;;;;;;;5.68;3.63;;;5.40;99.90;;;;;;5031903;28;20115;-75
2021/10/14 01:01:02;;;;;;;6.47;3.78;;;5.40;99.90;;;;;;5033349;28;20829;-77
2021/10/14 01:03:28;;;;;;;4.30;3.90;;;5.40;99.90;;;;;;5015708;28;20032;-74
2021/10/14 01:05:54;;;;;;;4.78;3.75;;;5.40;99.90;;;;;;5035384;28;20029;-77
2021/10/14 01:08:20;;;;;;;5.25;3.80;;;5.40;99.90;;;;;;5035231;28;20167;-73
2021/10/14 01:10:46;;;;;;;4.07;3.40;;;5.40;99.90;;;;;;5039205;28;20068;-74
2021/10/14 01:13:12;;;;;;;4.00;3.58;;;5.30;99.90;;;;;;5040201;28;20105;-75
2021/10/14 01:15:38;;;;;;;6.43;3.90;;;5.30;99.90;;;;;;5043461;28;20021;-76
2021/10/14 01:18:03;;;;;;;4.72;4.15;;;5.30;99.90;;;;;;5039402;28;20061;-74
2021/10/14 01:20:29;;;;;;;7.78;3.90;;;5.20;99.90;;;;;;5039049;28;20073;-74
2021/10/14 01:22:55;;;;;;;5.47;3.88;;;5.20;99.90;;;;;;5022041;28;20393;-74
2021/10/14 01:25:20;;;;;;;7.88;3.55;;;5.30;99.90;;;;;;5039518;28;20057;-73
2021/10/14 01:27:48;;;;;;;9.13;4.28;;;5.30;99.90;;;;;;5039338;28;20030;-74
2021/10/14 01:30:14;;;;;;;4.68;3.85;;;5.20;99.90;;;;;;5041337;28;20048;-74
2021/10/14 01:32:40;;;;;;;6.10;4.47;;;5.20;99.90;;;;;;5041302;28;20420;-76
2021/10/14 01:35:07;;;;;;;8.68;3.92;;;5.30;99.90;;;;;;5039307;28;20033;-74
2021/10/14 01:37:33;;;;;;;6.18;3.72;;;5.30;99.90;;;;;;5022250;28;20025;-75
2021/10/14 01:39:59;;;;;;;5.35;4.43;;;5.30;99.90;;;;;;5037404;28;20021;-74
2021/10/14 01:42:25;;;;;;;7.55;3.65;;;5.40;99.90;;;;;;5037896;28;20064;-76
2021/10/14 01:44:50;;;;;;;5.47;4.03;;;5.40;99.90;;;;;;5033639;28;20026;-73
2021/10/14 01:47:16;;;;;;;7.65;4.18;;;5.40;99.90;;;;;;5044195;28;20025;-75
2021/10/14 01:49:42;;;;;;;5.80;4.00;;;5.40;99.90;;;;;;5025898;28;20021;-74
2021/10/14 01:52:07;;;;;;;5.47;3.70;;;5.40;99.90;;;;;;5042464;28;20060;-75
2021/10/14 01:54:33;;;;;;;5.32;3.80;;;5.40;99.90;;;;;;5040747;28;20040;-74
2021/10/14 01:56:59;;;;;;;8.07;4.53;;;5.40;99.90;;;;;;5020940;28;20493;-74
2021/10/14 01:59:24;;;;;;;4.93;4.10;;;5.40;99.90;;;;;;5020112;28;20033;-73
2021/10/14 02:01:50;;;;;;;5.63;3.95;;;5.40;99.90;;;;;;5041721;28;20100;-74
2021/10/14 02:04:15;;;;;;;6.32;5.07;;;5.40;99.90;;;;;;5053629;28;20033;-74
2021/10/14 02:06:41;;;;;;;6.45;4.20;;;5.30;99.90;;;;;;5054953;28;20033;-73
2021/10/14 02:09:06;;;;;;;7.53;4.75;;;5.40;99.90;;;;;;5050218;28;20032;-74
2021/10/14 02:11:32;;;;;;;6.13;5.15;;;5.40;99.90;;;;;;5042657;28;20025;-75
2021/10/14 02:13:57;;;;;;;8.15;6.03;;;5.40;99.90;;;;;;5047199;28;20494;-74
2021/10/14 02:16:23;;;;;;;5.70;3.92;;;5.40;99.90;;;;;;5042255;28;20025;-73
2021/10/14 02:18:49;;;;;;;5.28;4.32;;;5.30;99.90;;;;;;5022223;28;20026;-73
2021/10/14 02:21:16;;;;;;;5.68;3.65;;;5.30;99.90;;;;;;5064937;22;20100;-74
2021/10/14 02:23:41;;;;;;;4.97;3.63;;;5.20;99.90;;;;;;5052963;28;20461;-77
2021/10/14 02:26:07;;;;;;;5.07;3.50;;;5.20;99.90;;;;;;5055234;28;20075;-76
2021/10/14 02:28:33;;;;;;;4.63;3.53;;;5.10;99.90;;;;;;5054350;28;20104;-75
2021/10/14 02:30:58;;;;;;;3.80;3.40;;;5.10;99.90;;;;;;5057086;28;20037;-76
2021/10/14 02:33:24;;;;;;;8.43;3.88;;;5.10;99.90;;;;;;5048687;28;20055;-76
2021/10/14 02:35:49;;;;;;;5.18;3.75;;;5.10;99.90;;;;;;5048855;28;20081;-76
2021/10/14 02:38:15;;;;;;;6.50;3.78;;;5.10;99.90;;;;;;5055225;28;20478;-75
2021/10/14 02:40:40;;;;;;;5.60;3.80;;;5.10;99.90;;;;;;5051472;28;20022;-76
2021/10/14 02:43:06;;;;;;;5.18;3.80;;;5.10;99.90;;;;;;5036678;28;20537;-76
2021/10/14 02:45:31;;;;;;;5.05;4.20;;;5.00;99.90;;;;;;5036564;28;20029;-76
2021/10/14 02:47:57;;;;;;;5.82;4.10;;;5.00;99.90;;;;;;5050784;28;20112;-75
2021/10/14 02:50:23;;;;;;;9.82;4.20;;;5.00;99.90;;;;;;5049812;28;20028;-76
2021/10/14 02:52:48;;;;;;;6.72;4.43;;;5.00;99.90;;;;;;5059079;28;20048;-76
2021/10/14 02:55:14;;;;;;;5.47;4.45;;;4.90;99.90;;;;;;5046540;28;20025;-76
2021/10/14 02:57:39;;;;;;;4.95;3.83;;;4.90;99.90;;;;;;5044432;28;20064;-75
2021/10/14 03:00:06;;;;;;;5.50;4.20;;;5.00;99.90;;;;;;5044800;28;20028;-76
2021/10/14 03:02:31;;;;;;;4.22;3.78;;;4.90;99.90;;;;;;5051152;28;20048;-76
2021/10/14 03:04:57;;;;;;;6.03;3.85;;;4.90;99.90;;;;;;5053803;28;20029;-76
2021/10/14 03:07:23;;;;;;;3.90;3.50;;;4.90;99.90;;;;;;5051881;28;20090;-77
2021/10/14 03:09:48;;;;;;;6.15;3.95;;;4.90;99.90;;;;;;5063460;28;20032;-76
2021/10/14 03:12:14;;;;;;;5.78;3.75;;;5.00;99.90;;;;;;5060207;28;20022;-76
2021/10/14 03:14:39;;;;;;;7.93;4.15;;;5.00;99.90;;;;;;5053957;28;20104;-76
2021/10/14 03:17:05;;;;;;;6.07;3.92;;;5.10;99.90;;;;;;5046120;28;20108;-76
2021/10/14 03:19:30;;;;;;;4.60;4.03;;;5.10;99.90;;;;;;5052679;28;20025;-76
2021/10/14 03:21:56;;;;;;;6.30;4.75;;;5.10;99.90;;;;;;5051842;28;20485;-75
2021/10/14 03:24:21;;;;;;;7.40;4.57;;;5.10;99.90;;;;;;5044018;28;20072;-76
2021/10/14 03:26:47;;;;;;;5.82;3.95;;;5.10;99.90;;;;;;5048358;28;20052;-76
2021/10/14 03:29:12;;;;;;;5.03;4.22;;;5.10;99.90;;;;;;5045742;28;20041;-76
2021/10/14 03:31:38;;;;;;;5.72;4.35;;;5.10;99.90;;;;;;5045987;28;20078;-75
2021/10/14 03:34:03;;;;;;;4.57;4.00;;;5.10;99.90;;;;;;5041010;28;20497;-76
2021/10/14 03:36:29;;;;;;;5.32;4.28;;;5.00;99.90;;;;;;5048597;28;20397;-76
2021/10/14 03:38:55;;;;;;;8.18;5.20;;;5.10;99.90;;;;;;5056987;28;20366;-76
2021/10/14 03:41:20;;;;;;;4.95;4.00;;;5.10;99.90;;;;;;5055542;28;20025;-75
2021/10/14 03:43:46;;;;;;;6.82;4.15;;;5.10;99.90;;;;;;5050097;28;20029;-76
2021/10/14 03:46:11;;;;;;;5.03;4.25;;;5.00;99.90;;;;;;5049211;28;20025;-76
2021/10/14 03:48:37;;;;;;;7.90;4.00;;;5.00;99.90;;;;;;5050303;28;20021;-77
2021/10/14 03:51:02;;;;;;;5.80;4.32;;;5.00;99.90;;;;;;5066650;28;20119;-75
2021/10/14 03:53:28;;;;;;;5.13;4.63;;;5.00;99.90;;;;;;5064899;28;20033;-75
2021/10/14 03:55:54;;;;;;;7.15;4.25;;;5.00;99.90;;;;;;5076289;28;20021;-74
2021/10/14 03:58:19;;;;;;;7.45;3.90;;;5.00;99.90;;;;;;5057387;28;20069;-75
2021/10/14 04:00:46;;;;;;;5.45;4.78;;;5.00;99.90;;;;;;5055958;28;20050;-74
2021/10/14 04:03:12;;;;;;;4.95;4.32;;;5.00;99.90;;;;;;5046991;28;20009;-76
2021/10/14 04:05:37;;;;;;;7.88;4.70;;;5.00;99.90;;;;;;5057286;28;20021;-75
2021/10/14 04:08:03;;;;;;;6.60;4.93;;;5.00;99.90;;;;;;5058393;28;20040;-75
2021/10/14 04:10:29;;;;;;;6.90;4.85;;;4.90;99.90;;;;;;5050708;28;20472;-75
2021/10/14 04:12:54;;;;;;;7.90;4.05;;;4.90;99.90;;;;;;5049887;28;20033;-75
2021/10/14 04:15:20;;;;;;;9.43;4.90;;;4.90;99.90;;;;;;5039762;28;20037;-75
2021/10/14 04:17:45;;;;;;;7.82;4.82;;;4.90;99.90;;;;;;5050706;28;20107;-75
2021/10/14 04:20:11;;;;;;;13.40;4.45;;;4.90;99.90;;;;;;5042438;28;20502;-76
2021/10/14 04:22:37;;;;;;;7.88;4.57;;;4.90;99.90;;;;;;5050570;28;20036;-76
2021/10/14 04:25:03;;;;;;;6.80;4.35;;;5.00;99.90;;;;;;5043348;28;20083;-76
2021/10/14 04:27:28;;;;;;;6.82;4.00;;;5.00;99.90;;;;;;5051580;28;20028;-76
2021/10/14 04:29:54;;;;;;;16.63;4.50;;;5.00;99.90;;;;;;5045606;28;20047;-76
2021/10/14 04:32:20;;;;;;;12.55;4.93;;;5.10;99.90;;;;;;5045740;28;20397;-75
2021/10/14 04:34:46;;;;;;;5.88;4.65;;;5.10;99.90;;;;;;5052160;28;20033;-76
2021/10/14 04:37:11;;;;;;;10.40;5.53;;;5.10;99.90;;;;;;5041166;28;20539;-76
2021/10/14 04:39:38;;;;;;;8.02;4.18;;;5.20;99.90;;;;;;5038061;28;20029;-76
2021/10/14 04:42:07;;;;;;;7.03;3.95;;;5.20;99.90;;;;;;5043485;28;20032;-76
2021/10/14 04:44:33;;;;;;;8.30;4.38;;;5.30;99.90;;;;;;5052274;28;20033;-76
2021/10/14 04:47:02;;;;;;;5.40;4.25;;;5.20;99.90;;;;;;5042714;28;20044;-76
2021/10/14 04:49:28;;;;;;;7.60;4.50;;;5.30;99.90;;;;;;5054416;28;20508;-76
2021/10/14 04:51:54;;;;;;;8.82;4.53;;;5.30;99.90;;;;;;5045976;28;20117;-77
2021/10/14 04:54:19;;;;;;;5.38;4.53;;;5.40;99.90;;;;;;5045242;28;20400;-76
2021/10/14 04:56:45;;;;;;;4.70;4.10;;;5.40;99.90;;;;;;5052163;28;20025;-76
2021/10/14 04:59:10;;;;;;;5.78;4.78;;;5.40;99.90;;;;;;5047508;28;20083;-76
2021/10/14 05:01:36;;;;;;;7.85;3.92;;;5.50;99.90;;;;;;5041029;28;20021;-76
2021/10/14 05:04:01;;;;;;;5.45;4.38;;;5.60;99.90;;;;;;5049247;28;20025;-76
2021/10/14 05:06:27;;;;;;;5.82;3.90;;;5.60;99.90;;;;;;5041369;28;20028;-76
2021/10/14 05:08:53;;;;;;;7.03;4.35;;;5.70;99.90;;;;;;5061048;28;20037;-76
2021/10/14 05:11:18;;;;;;;4.70;4.20;;;5.70;99.90;;;;;;5045125;28;20044;-79
2021/10/14 05:13:44;;;;;;;5.45;3.72;;;5.80;99.90;;;;;;5049220;28;20040;-76
2021/10/14 05:16:09;;;;;;;6.32;4.10;;;5.80;99.90;;;;;;5051500;28;20056;-76
2021/10/14 05:18:35;;;;;;;10.45;4.53;;;5.80;99.90;;;;;;5046796;28;20029;-77
2021/10/14 05:21:01;;;;;;;5.13;4.50;;;5.80;99.90;;;;;;5055494;28;20480;-75
2021/10/14 05:23:26;;;;;;;6.63;4.18;;;5.80;99.90;;;;;;5054924;28;20032;-76
2021/10/14 05:25:52;;;;;;;8.80;4.30;;;5.90;99.90;;;;;;5044308;28;20033;-76
2021/10/14 05:28:18;;;;;;;5.32;4.22;;;5.90;99.90;;;;;;5047708;28;20025;-76
2021/10/14 05:30:46;;;;;;;7.55;4.32;;;5.90;99.90;;;;;;5055834;28;20100;-76
2021/10/14 05:33:12;;;;;;;6.03;4.43;;;5.90;99.90;;;;;;5056441;28;20132;-76
2021/10/14 05:35:37;;;;;;;7.18;4.20;;;6.00;99.90;;;;;;5056792;28;20025;-75
2021/10/14 05:38:03;;;;;;;5.70;4.70;;;5.90;99.90;;;;;;5054469;28;20037;-75
2021/10/14 05:40:29;;;;;;;6.13;4.70;;;5.90;99.90;;;;;;5050160;28;20029;-76
2021/10/14 05:42:55;;;;;;;7.82;5.90;;;5.90;99.90;;;;;;5052020;28;20489;-75
2021/10/14 05:45:20;;;;;;;7.03;4.82;;;5.90;99.90;;;;;;5046884;28;20487;-76
2021/10/14 05:47:46;;;;;;;8.23;5.25;;;5.90;99.90;;;;;;5057302;28;20032;-76
2021/10/14 05:50:11;;;;;;;7.68;5.13;;;5.90;99.90;;;;;;5056764;28;20092;-76
2021/10/14 05:52:37;;;;;;;12.93;5.32;;;5.90;99.90;;;;;;5047736;28;20025;-76
2021/10/14 05:55:03;;;;;;;9.98;5.90;;;5.90;99.90;;;;;;5045965;28;20029;-75
2021/10/14 05:57:28;;;;;;;10.80;5.47;;;5.90;99.90;;;;;;5053413;28;20060;-76
2021/10/14 05:59:55;;;;;;;9.65;5.68;;;5.90;99.90;;;;;;5041667;28;20393;-76
2021/10/14 06:02:21;;;;;;;8.52;6.07;;;5.90;99.90;;;;;;5049363;28;20029;-76
2021/10/14 06:04:47;;;;;;;8.32;5.35;;;5.90;99.90;;;;;;5049282;28;20033;-76
2021/10/14 06:07:12;;;;;;;7.72;4.43;;;5.90;99.90;;;;;;5052987;28;20075;-76
2021/10/14 06:09:40;;;;;;;6.47;4.75;;;6.00;99.90;;;;;;5047320;28;20025;-75
2021/10/14 06:12:06;;;;;;;9.70;5.00;;;6.10;99.90;;;;;;5046444;28;20101;-76
2021/10/14 06:14:31;;;;;;;10.18;4.75;;;6.20;99.90;;;;;;5052691;28;20102;-76
2021/10/14 06:16:57;;;;;;;9.70;4.63;;;6.40;99.90;;;;;;5046741;28;20029;-77
2021/10/14 06:19:22;;;;;;;14.10;5.10;;;6.60;99.90;;;;;;5057990;28;20040;-77
2021/10/14 06:21:48;;;;;;;5.68;4.38;;;6.70;99.90;;;;;;5053721;28;20053;-76
2021/10/14 06:24:14;;;;;;;8.27;4.10;;;6.70;99.90;;;;;;5052685;28;20021;-75
2021/10/14 06:26:40;;;;;;;7.43;4.30;;;6.70;99.90;;;;;;5055521;28;20017;-75
2021/10/14 06:29:06;;;;;;;6.40;4.05;;;6.80;99.90;;;;;;5048396;28;20516;-76
2021/10/14 06:31:31;;;;;;;4.70;3.88;;;6.80;99.90;;;;;;5051327;28;20385;-75
2021/10/14 06:33:57;;;;;;;7.47;4.90;;;6.80;99.90;;;;;;5034745;28;20048;-77
2021/10/14 06:36:24;;;;;;;6.07;5.25;;;6.80;99.90;;;;;;5049461;28;20349;-75
2021/10/14 06:38:49;;;;;;;9.35;4.43;;;6.70;99.90;;;;;;5054105;28;20033;-76
2021/10/14 06:41:15;;;;;;;7.07;4.47;;;6.70;99.90;;;;;;5051844;28;20106;-76
2021/10/14 06:43:42;;;;;;;6.07;4.63;;;6.80;99.90;;;;;;5066243;28;20017;-77
2021/10/14 06:46:08;;;;;;;8.40;4.60;;;6.80;99.90;;;;;;5055355;28;20025;-77
2021/10/14 06:48:33;;;;;;;6.55;4.35;;;6.80;99.90;;;;;;5057957;28;20028;-77
2021/10/14 06:50:59;;;;;;;5.50;4.70;;;6.80;99.90;;;;;;5057190;28;20090;-77
2021/10/14 06:53:25;;;;;;;4.97;3.78;;;6.80;99.90;;;;;;5064447;28;20061;-76
2021/10/14 06:55:51;;;;;;;11.18;4.88;;;7.00;99.90;;;;;;5074756;28;20051;-76
2021/10/14 06:58:16;;;;;;;5.00;3.92;;;7.10;99.90;;;;;;5078993;28;20017;-76
2021/10/14 07:00:43;;;;;;;5.47;4.97;;;7.20;99.90;;;;;;5061886;28;20029;-75
2021/10/14 07:03:08;;;;;;;4.85;4.10;;;7.30;99.90;;;;;;5047992;28;20481;-76
2021/10/14 07:05:34;;;;;;;9.32;4.93;;;7.20;99.90;;;;;;5043337;28;20029;-76
2021/10/14 07:08:00;;;;;;;4.85;4.32;;;7.40;99.90;;;;;;5053314;28;20022;-77
2021/10/14 07:10:26;;;;;;;5.65;4.50;;;7.80;99.90;;;;;;5042120;28;20025;-77
2021/10/14 07:12:52;;;;;;;6.78;4.15;;;7.70;99.90;;;;;;5042207;28;20028;-77
2021/10/14 07:15:18;;;;;;;6.85;4.28;;;7.70;99.90;;;;;;5038569;28;20041;-77
2021/10/14 07:17:44;;;;;;;8.23;4.15;;;8.00;99.90;;;;;;5037530;28;20030;-77
2021/10/14 07:20:10;;;;;;;6.88;4.90;;;7.90;99.90;;;;;;5037081;28;20093;-76
2021/10/14 07:22:35;;;;;;;6.78;4.57;;;7.80;99.90;;;;;;5034443;28;20064;-74
2021/10/14 07:25:01;;;;;;;6.57;4.43;;;7.90;99.90;;;;;;5034952;28;20026;-76
2021/10/14 07:27:27;;;;;;;10.55;5.10;;;7.90;99.90;;;;;;5035245;28;20057;-76
2021/10/14 07:29:52;;;;;;;7.15;4.45;;;7.90;99.90;;;;;;5050012;28;20021;-76
2021/10/14 07:32:18;;;;;;;5.30;4.20;;;8.00;99.90;;;;;;5035145;28;20029;-76
2021/10/14 07:34:43;;;;;;;7.55;4.32;;;8.10;99.90;;;;;;5036355;28;20112;-75
2021/10/14 07:37:09;;;;;;;6.85;4.43;;;8.20;99.90;;;;;;5038886;28;20030;-77
2021/10/14 07:39:35;;;;;;;8.43;4.63;;;8.30;99.90;;;;;;5040241;28;20026;-76
2021/10/14 07:42:01;;;;;;;6.10;5.00;;;8.40;99.90;;;;;;5039465;28;20045;-76
2021/10/14 07:44:27;;;;;;;6.95;4.05;;;8.50;99.90;;;;;;5039531;28;20017;-77
2021/10/14 07:46:52;;;;;;;6.00;4.63;;;8.60;99.90;;;;;;5040724;28;20032;-77
2021/10/14 07:49:19;;;;;;;5.20;4.63;;;8.80;99.90;;;;;;5039908;28;20117;-77
2021/10/14 07:51:45;;;;;;;9.65;4.50;;;9.00;99.90;;;;;;5038379;28;20033;-77
2021/10/14 07:54:10;;;;;;;5.03;4.20;;;9.30;99.90;;;;;;5035952;28;20392;-76
2021/10/14 07:56:36;;;;;;;6.65;4.43;;;9.10;99.90;;;;;;5035993;28;20104;-76
2021/10/14 07:59:02;;;;;;;7.57;4.32;;;9.20;99.90;;;;;;5050053;28;20021;-76
2021/10/14 08:01:28;;;;;;;5.30;4.53;;;9.00;99.90;;;;;;5034696;28;20481;-77
2021/10/14 08:03:54;;;;;;;6.25;4.70;;;8.90;99.90;;;;;;5034758;28;20084;-76
2021/10/14 08:06:19;;;;;;;6.70;4.70;;;8.80;99.90;;;;;;5034561;28;20037;-76
2021/10/14 08:08:45;;;;;;;5.32;4.68;;;8.80;99.90;;;;;;5035334;28;20067;-77
2021/10/14 08:11:11;;;;;;;8.80;4.25;;;8.90;99.90;;;;;;5035180;28;20029;-77
2021/10/14 08:13:37;;;;;;;6.53;4.53;;;9.00;99.90;;;;;;5034636;28;20107;-77
2021/10/14 08:16:04;;;;;;;9.00;5.38;;;9.20;99.90;;;;;;5035021;28;20033;-76
2021/10/14 08:18:31;;;;;;;10.90;5.20;;;9.40;99.90;;;;;;5034893;28;20021;-77
2021/10/14 08:20:58;;;;;;;6.25;5.05;;;9.50;99.90;;;;;;5034110;28;20481;-77
2021/10/14 08:23:25;;;;;;;6.97;4.57;;;9.60;99.90;;;;;;5089111;23;20121;-74
2021/10/14 08:25:51;;;;;;;11.00;5.07;;;9.70;99.90;;;;;;5074943;28;20036;-76
2021/10/14 08:28:17;;;;;;;7.57;4.60;;;9.70;99.90;;;;;;5075266;28;20028;-74
2021/10/14 08:30:44;;;;;;;10.23;4.63;;;10.00;99.90;;;;;;5075393;28;20025;-77
2021/10/14 08:33:10;;;;;;;8.30;4.32;;;10.00;99.90;;;;;;5057403;28;20095;-76
2021/10/14 08:35:37;;;;;;;5.78;4.22;;;10.00;99.90;;;;;;5054267;28;20492;-74
2021/10/14 08:38:05;;;;;;;7.38;4.25;;;10.00;99.90;;;;;;5054949;28;20112;-73
2021/10/14 08:40:32;;;;;;;6.97;4.45;;;10.20;99.90;;;;;;5055051;28;20025;-74
2021/10/14 08:43:04;;;;;;;10.55;5.72;;;10.50;99.90;;;;;;5056876;28;20036;-74
2021/10/14 08:45:34;;;;;;;16.50;5.18;;;10.80;99.90;;;;;;5058254;28;20092;-75
2021/10/14 08:48:02;;;;;;;12.23;5.28;;;10.90;99.90;;;;;;5055553;28;20029;-74
2021/10/14 08:50:28;;;;;;;7.43;4.20;;;10.70;99.90;;;;;;5054871;28;20033;-74
2021/10/14 08:52:54;;;;;;;9.75;4.60;;;10.70;99.90;;;;;;5041668;28;20041;-73
2021/10/14 08:55:19;;;;;;;7.18;5.05;;;11.00;99.90;;;;;;5038609;28;20036;-74
2021/10/14 08:57:45;;;;;;;6.97;4.10;;;11.10;99.90;;;;;;5032918;28;20455;-76
2021/10/14 09:00:11;;;;;;;7.30;3.58;;;11.30;99.90;;;;;;5046255;28;20447;-74
2021/10/14 09:02:37;;;;;;;8.30;4.40;;;11.50;99.90;;;;;;5053384;28;20072;-75
2021/10/14 09:05:07;;;;;;;7.25;4.15;;;12.00;99.90;;;;;;5054170;28;20369;-74
2021/10/14 09:07:33;;;;;;;4.47;3.95;;;12.20;99.90;;;;;;5053500;28;20025;-74
2021/10/14 09:10:03;;;;;;;6.97;5.53;;;12.30;99.90;;;;;;5054231;28;20028;-74
2021/10/14 09:12:36;;;;;;;9.65;4.00;;;12.30;99.90;;;;;;5053558;28;20029;-73
2021/10/14 09:15:09;;;;;;;7.45;4.30;;;12.30;99.90;;;;;;5054703;28;20029;-75
2021/10/14 09:17:48;;;;;;;5.05;3.58;;;12.40;99.90;;;;;;5054248;28;20366;-76
2021/10/14 09:20:35;;;;;;;5.10;4.10;;;12.40;99.90;;;;;;5054337;28;20478;-75
2021/10/14 09:23:21;;;;;;;6.82;4.60;;;12.60;99.90;;;;;;5058949;28;20461;-74
2021/10/14 09:25:52;;;;;;;7.70;4.15;;;12.70;99.90;;;;;;5058836;28;20468;-74
2021/10/14 09:28:21;;;;;;;7.75;4.03;;;12.80;99.90;;;;;;5053802;28;20025;-76
2021/10/14 09:30:52;;;;;;;8.23;4.10;;;12.80;99.90;;;;;;5052341;28;20098;-73
2021/10/14 09:33:27;;;;;;;;;;;12.80;99.90;;;;;;5054178;28;20032;-74
2021/10/14 09:35:53;;;;;;;4.82;3.80;;;12.80;99.90;;;;;;5054043;28;19904;-74
2021/10/14 09:38:34;;;;;;;6.00;3.55;;;12.60;99.90;;;;;;5055526;28;20047;-75
2021/10/14 09:41:03;;;;;;;10.25;4.32;;;12.60;99.90;;;;;;5054976;28;20022;-73
2021/10/14 09:43:29;;;;;;;6.03;3.90;;;12.60;99.90;;;;;;5056148;28;20033;-75
2021/10/14 09:45:55;;;;;;;9.13;4.25;;;12.40;99.90;;;;;;5053678;28;20028;-73
2021/10/14 09:48:21;;;;;;;4.32;3.65;;;12.40;99.90;;;;;;5054564;28;20031;-75
2021/10/14 09:50:47;;;;;;;5.75;3.88;;;12.40;99.90;;;;;;5052773;28;20283;-73
2021/10/14 09:53:22;;;;;;;8.45;4.22;;;12.50;99.90;;;;;;5061381;28;20021;-74
2021/10/14 09:55:51;;;;;;;6.88;3.75;;;12.70;99.90;;;;;;5056157;28;20021;-73
2021/10/14 09:58:18;;;;;;;5.38;3.47;;;12.80;99.90;;;;;;5053937;28;20029;-75
2021/10/14 10:00:45;;;;;;;5.20;3.38;;;12.80;99.90;;;;;;5053687;28;20032;-75
2021/10/14 10:03:14;;;;;;;7.85;3.00;;;13.00;99.90;;;;;;5070783;28;20057;-75
2021/10/14 10:05:44;;;;;;;7.35;4.10;;;13.00;99.90;;;;;;5055941;28;20025;-75
2021/10/14 10:08:13;;;;;;;4.10;2.92;;;13.00;99.90;;;;;;5063227;28;20394;-74
2021/10/14 10:10:42;;;;;;;4.32;2.70;;;13.00;99.90;;;;;;5061775;28;20028;-73
2021/10/14 10:13:11;;;;;;;6.30;3.03;;;13.20;99.90;;;;;;5061601;28;20131;-74
2021/10/14 10:15:44;;;;;;;5.35;2.83;;;13.20;99.90;;;;;;5060076;28;20493;-75
2021/10/14 10:18:28;;;;;;;5.68;2.53;;;13.30;99.90;;;;;;5060577;28;20048;-74
2021/10/14 10:20:55;;;;;;;8.15;3.88;;;13.40;99.90;;;;;;5061447;28;20025;-73
2021/10/14 10:23:43;;;;;;;4.88;2.58;;;13.50;99.90;;;;;;5059275;28;20040;-77
2021/10/14 10:26:33;;;;;;;7.43;2.75;;;13.50;99.90;;;;;;5059079;28;20028;-74
2021/10/14 10:29:12;;;;;;;3.40;2.80;;;13.30;99.90;;;;;;5058703;28;20048;-74
2021/10/14 10:31:53;;;;;;;5.45;1.88;;;13.30;99.90;;;;;;5058452;28;20075;-74
2021/10/14 10:37:21;;;;;;;3.63;1.20;;;13.40;99.90;;;;;;5065439;28;20390;-73
2021/10/14 10:39:51;;;;;;;2.63;1.20;;;13.50;99.90;;;;;;5064517;28;20029;-73
2021/10/14 10:42:47;;;;;;;3.30;1.08;;;13.60;99.90;;;;;;5062700;28;20028;-74
2021/10/14 10:45:16;;;;;;;1.50;1.30;;;13.70;99.90;;;;;;5059537;28;20013;-75
2021/10/14 10:47:43;;;;;;;4.35;2.08;;;13.70;99.90;;;;;;5071761;28;20039;-74
2021/10/14 10:50:17;;;;;;;3.38;2.00;;;13.80;99.90;;;;;;5064706;28;20029;-73
2021/10/14 10:52:46;;;;;;;2.97;1.73;;;13.90;99.90;;;;;;5061804;28;20036;-74
2021/10/14 10:55:15;;;;;;;5.55;1.50;;;14.50;99.90;;;;;;5068428;28;20012;-72
2021/10/14 10:57:45;;;;;;;3.13;1.08;;;14.30;99.90;;;;;;5079660;28;20112;-73
2021/10/14 11:00:17;;;;;;;3.63;1.85;;;14.10;99.90;;;;;;5079110;28;20009;-74
2021/10/14 11:02:44;;;;;;;2.38;1.52;;;14.00;99.90;;;;;;5069709;28;20053;-76
2021/10/14 11:05:15;;;;;;;5.07;1.58;;;14.00;99.90;;;;;;5061384;28;20065;-73
2021/10/14 11:07:41;;;;;;;1.60;1.48;;;14.00;99.90;;;;;;5058437;28;20048;-75
2021/10/14 11:10:07;;;;;;;3.03;2.20;;;14.20;99.90;;;;;;5057438;28;20036;-75
2021/10/14 11:12:33;;;;;;;4.70;2.03;;;14.00;99.90;;;;;;5057374;28;20025;-75
2021/10/14 11:14:58;;;;;;;6.70;2.15;;;14.00;99.90;;;;;;5057609;28;20052;-75
2021/10/14 11:17:25;;;;;;;4.30;2.38;;;14.20;99.90;;;;;;5055844;28;20107;-75
2021/10/14 11:20:04;;;;;;;5.53;2.80;;;14.20;99.90;;;;;;5055694;28;20028;-76
2021/10/14 11:22:30;;;;;;;5.53;2.90;;;14.50;99.90;;;;;;5056069;28;20028;-74
2021/10/14 11:25:00;;;;;;;2.67;2.03;;;14.40;99.90;;;;;;5056857;28;20104;-74
2021/10/14 11:27:25;;;;;;;5.15;3.03;;;14.40;99.90;;;;;;5057879;28;20395;-75
2021/10/14 11:29:53;;;;;;;3.30;2.40;;;14.70;99.90;;;;;;5057035;28;20099;-74
2021/10/14 11:32:30;;;;;;;2.97;2.55;;;14.90;99.90;;;;;;5056017;28;20021;-76
2021/10/14 11:35:07;;;;;;;5.43;2.58;;;14.80;99.90;;;;;;5057266;28;20032;-74
2021/10/14 11:37:33;;;;;;;5.60;2.22;;;15.00;99.90;;;;;;5057382;28;20032;-75
2021/10/14 11:40:00;;;;;;;4.57;2.50;;;15.10;99.90;;;;;;5056659;28;20017;-75
2021/10/14 11:42:28;;;;;;;2.95;2.17;;;15.30;99.90;;;;;;5058809;28;20017;-74
2021/10/14 11:44:57;;;;;;;3.17;2.42;;;15.50;99.90;;;;;;5056934;28;20501;-76
2021/10/14 11:47:24;;;;;;;3.60;2.17;;;15.50;99.90;;;;;;5055536;28;20036;-74
2021/10/14 11:50:04;;;;;;;3.20;2.15;;;15.50;99.90;;;;;;5054769;28;20104;-73
2021/10/14 11:52:29;;;;;;;4.90;2.13;;;15.70;99.90;;;;;;5055073;28;20064;-75
2021/10/14 11:55:06;;;;;;;2.65;1.52;;;16.00;99.90;;;;;;5053319;28;20025;-74
2021/10/14 11:57:32;;;;;;;2.78;1.40;;;15.70;99.90;;;;;;5053898;28;20032;-74
2021/10/14 11:59:59;;;;;;;6.85;2.00;;;15.70;99.90;;;;;;5054517;28;20492;-74
2021/10/14 12:02:27;;;;;;;3.03;1.67;;;16.30;99.90;;;;;;5055586;28;20029;-74
2021/10/14 12:04:54;;;;;;;3.75;1.38;;;16.30;99.50;;;;;;5055858;28;20028;-76
2021/10/14 12:07:21;;;;;;;4.57;2.00;;;15.90;99.90;;;;;;5054681;28;20024;-74
2021/10/14 12:09:48;;;;;;;4.45;1.58;;;15.40;99.90;;;;;;5056161;28;20039;-75
2021/10/14 12:12:23;;;;;;;2.97;1.80;;;15.40;99.90;;;;;;5054263;28;20032;-74
2021/10/14 12:15:05;;;;;;;4.07;1.70;;;15.40;99.90;;;;;;5053850;28;20025;-74
2021/10/14 12:17:47;;;;;;;3.97;2.03;;;15.50;99.90;;;;;;5055176;28;20033;-75
2021/10/14 12:20:16;;;;;;;2.05;1.70;;;15.50;99.90;;;;;;5055218;28;20536;-74
2021/10/14 12:22:44;;;;;;;6.88;2.70;;;15.30;99.90;;;;;;5070605;28;20061;-74
2021/10/14 12:25:10;;;;;;;2.75;1.65;;;15.20;99.90;;;;;;5054550;28;20146;-74
2021/10/14 12:27:51;;;;;;;4.13;1.75;;;15.60;99.90;;;;;;5054867;28;20437;-74
2021/10/14 12:30:25;;;;;;;2.97;1.67;;;15.70;99.90;;;;;;5054978;28;20032;-76
2021/10/14 12:33:14;;;;;;;5.55;1.77;;;15.80;99.90;;;;;;5054734;28;20025;-75
2021/10/14 12:35:39;;;;;;;4.38;2.08;;;16.10;99.90;;;;;;5055097;28;20464;-75
2021/10/14 12:38:06;;;;;;;2.78;1.92;;;16.60;99.90;;;;;;5054958;28;20032;-75
2021/10/14 12:40:32;;;;;;;3.50;1.77;;;16.00;99.90;;;;;;5069926;28;20107;-77
2021/10/14 12:51:08;;;;;;;3.38;2.10;;;15.30;99.90;;;;;;5057524;28;20027;-73
2021/10/14 12:53:41;;;;;;;2.80;2.28;;;15.60;99.90;;;;;;5063667;28;20025;-74
2021/10/14 12:56:08;;;;;;;2.85;2.10;;;15.50;99.90;;;;;;5040422;28;20117;-73
2021/10/14 12:58:35;;;;;;;6.82;2.00;;;15.50;99.90;;;;;;5046223;28;20033;-75
2021/10/14 13:01:10;;;;;;;1.98;1.45;;;15.50;99.90;;;;;;5054609;28;20025;-76
2021/10/14 13:03:37;;;;;;;2.70;1.77;;;15.50;99.90;;;;;;5053991;28;20032;-76